sensor_id;sensor_type;location;lat;lon;timestamp;P1;durP1;ratioP1;P2;durP2;ratioP2
31836;SDS011;18401;49.344;6.240;2023-02-26T09:13:57;6.68;;;3.35;;
31836;SDS011;18401;49.344;6.240;2023-02-26T09:16:24;7.13;;;2.97;;
31836;SDS011;18401;49.344;6.240;2023-02-26T09:18:50;3.30;;;3.00;;
31836;SDS011;18401;49.344;6.240;2023-02-26T09:21:16;4.38;;;3.00;;
31836;SDS011;18401;49.344;6.240;2023-02-26T09:23:41;6.00;;;2.95;;
31836;SDS011;18401;49.344;6.240;2023-02-26T09:26:07;7.43;;;3.65;;
31836;SDS011;18401;49.344;6.240;2023-02-26T09:28:34;7.78;;;3.30;;
31836;SDS011;18401;49.344;6.240;2023-02-26T09:30:59;9.00;;;3.53;;
31836;SDS011;18401;49.344;6.240;2023-02-26T09:33:25;4.32;;;2.95;;
31836;SDS011;18401;49.344;6.240;2023-02-26T09:35:51;4.95;;;3.20;;
31836;SDS011;18401;49.344;6.240;2023-02-26T09:38:17;6.82;;;3.58;;
31836;SDS011;18401;49.344;6.240;2023-02-26T09:40:50;5.93;;;3.45;;
31836;SDS011;18401;49.344;6.240;2023-02-26T09:43:42;5.40;;;3.30;;
31836;SDS011;18401;49.344;6.240;2023-02-26T09:57:53;4.40;;;2.72;;
31836;SDS011;18401;49.344;6.240;2023-02-26T10:00:23;3.92;;;2.65;;
31836;SDS011;18401;49.344;6.240;2023-02-26T10:12:12;3.97;;;2.33;;
31836;SDS011;18401;49.344;6.240;2023-02-26T10:22:52;4.63;;;2.20;;
31836;SDS011;18401;49.344;6.240;2023-02-26T10:25:25;2.35;;;2.10;;
31836;SDS011;18401;49.344;6.240;2023-02-26T10:28:01;3.88;;;2.35;;
31836;SDS011;18401;49.344;6.240;2023-02-26T10:30:39;3.67;;;1.85;;
31836;SDS011;18401;49.344;6.240;2023-02-26T10:33:12;4.10;;;1.98;;
31836;SDS011;18401;49.344;6.240;2023-02-26T10:35:41;2.42;;;2.22;;
31836;SDS011;18401;49.344;6.240;2023-02-26T10:38:17;6.38;;;2.70;;
31836;SDS011;18401;49.344;6.240;2023-02-26T10:41:01;2.25;;;1.77;;
31836;SDS011;18401;49.344;6.240;2023-02-26T10:43:39;2.25;;;2.05;;
31836;SDS011;18401;49.344;6.240;2023-02-26T10:52:26;3.38;;;1.80;;
31836;SDS011;18401;49.344;6.240;2023-02-26T10:57:37;4.57;;;1.60;;
31836;SDS011;18401;49.344;6.240;2023-02-26T11:00:14;1.40;;;1.30;;
31836;SDS011;18401;49.344;6.240;2023-02-26T11:02:43;1.67;;;1.57;;
31836;SDS011;18401;49.344;6.240;2023-02-26T11:05:16;5.50;;;1.25;;
31836;SDS011;18401;49.344;6.240;2023-02-26T11:07:44;3.30;;;1.40;;
31836;SDS011;18401;49.344;6.240;2023-02-26T11:10:13;2.95;;;1.40;;
31836;SDS011;18401;49.344;6.240;2023-02-26T11:12:41;2.88;;;1.33;;
31836;SDS011;18401;49.344;6.240;2023-02-26T11:15:14;1.75;;;1.00;;
31836;SDS011;18401;49.344;6.240;2023-02-26T11:17:42;6.20;;;1.92;;
31836;SDS011;18401;49.344;6.240;2023-02-26T11:20:14;1.20;;;1.10;;
31836;SDS011;18401;49.344;6.240;2023-02-26T11:22:47;2.80;;;1.20;;
31836;SDS011;18401;49.344;6.240;2023-02-26T11:25:21;1.50;;;1.40;;
31836;SDS011;18401;49.344;6.240;2023-02-26T11:27:49;1.55;;;1.45;;
31836;SDS011;18401;49.344;6.240;2023-02-26T11:30:24;2.22;;;1.25;;
31836;SDS011;18401;49.344;6.240;2023-02-26T11:32:51;1.90;;;1.30;;
31836;SDS011;18401;49.344;6.240;2023-02-26T11:35:21;3.15;;;1.60;;
31836;SDS011;18401;49.344;6.240;2023-02-26T11:37:54;2.70;;;1.13;;
31836;SDS011;18401;49.344;6.240;2023-02-26T11:42:58;3.17;;;1.48;;
31836;SDS011;18401;49.344;6.240;2023-02-26T11:45:27;1.77;;;1.20;;
31836;SDS011;18401;49.344;6.240;2023-02-26T11:48:00;2.58;;;1.20;;
31836;SDS011;18401;49.344;6.240;2023-02-26T11:50:29;3.80;;;1.42;;
31836;SDS011;18401;49.344;6.240;2023-02-26T11:52:56;2.60;;;1.50;;
31836;SDS011;18401;49.344;6.240;2023-02-26T11:55:36;1.52;;;1.10;;
31836;SDS011;18401;49.344;6.240;2023-02-26T11:58:21;6.28;;;1.33;;
31836;SDS011;18401;49.344;6.240;2023-02-26T12:00:51;1.55;;;1.45;;
31836;SDS011;18401;49.344;6.240;2023-02-26T12:03:19;2.15;;;1.58;;
31836;SDS011;18401;49.344;6.240;2023-02-26T12:05:48;3.58;;;1.42;;
31836;SDS011;18401;49.344;6.240;2023-02-26T12:08:33;3.58;;;1.70;;
31836;SDS011;18401;49.344;6.240;2023-02-26T12:35:44;6.13;;;2.22;;
31836;SDS011;18401;49.344;6.240;2023-02-26T12:41:20;2.67;;;1.48;;
31836;SDS011;18401;49.344;6.240;2023-02-26T13:01:59;1.60;;;1.33;;
31836;SDS011;18401;49.344;6.240;2023-02-26T13:04:57;4.35;;;1.70;;
31836;SDS011;18401;49.344;6.240;2023-02-26T13:07:37;1.50;;;1.40;;
31836;SDS011;18401;49.344;6.240;2023-02-26T13:11:15;6.32;;;2.80;;
31836;SDS011;18401;49.344;6.240;2023-02-26T13:13:20;1.85;;;1.40;;
31836;SDS011;18401;49.344;6.240;2023-02-26T13:16:11;1.45;;;1.35;;
31836;SDS011;18401;49.344;6.240;2023-02-26T13:21:49;2.25;;;1.02;;
31836;SDS011;18401;49.344;6.240;2023-02-26T13:24:21;0.88;;;0.88;;
31836;SDS011;18401;49.344;6.240;2023-02-26T13:26:56;1.40;;;1.20;;
31836;SDS011;18401;49.344;6.240;2023-02-26T13:31:52;3.28;;;1.38;;
31836;SDS011;18401;49.344;6.240;2023-02-26T13:39:51;4.65;;;1.67;;
31836;SDS011;18401;49.344;6.240;2023-02-26T13:56:14;1.77;;;1.38;;
31836;SDS011;18401;49.344;6.240;2023-02-26T13:58:42;1.35;;;1.33;;
31836;SDS011;18401;49.344;6.240;2023-02-26T14:01:16;1.27;;;1.17;;
31836;SDS011;18401;49.344;6.240;2023-02-26T14:04:05;0.95;;;0.90;;
31836;SDS011;18401;49.344;6.240;2023-02-26T14:06:38;1.55;;;0.90;;
31836;SDS011;18401;49.344;6.240;2023-02-26T14:14:23;1.20;;;1.20;;
31836;SDS011;18401;49.344;6.240;2023-02-26T14:22:20;1.67;;;1.17;;
31836;SDS011;18401;49.344;6.240;2023-02-26T14:25:12;1.45;;;1.35;;
31836;SDS011;18401;49.344;6.240;2023-02-26T14:27:47;1.33;;;1.30;;
31836;SDS011;18401;49.344;6.240;2023-02-26T14:30:18;0.98;;;0.98;;
31836;SDS011;18401;49.344;6.240;2023-02-26T14:35:28;3.53;;;1.50;;
31836;SDS011;18401;49.344;6.240;2023-02-26T14:38:33;1.40;;;1.30;;
31836;SDS011;18401;49.344;6.240;2023-02-26T14:41:07;2.30;;;1.25;;
31836;SDS011;18401;49.344;6.240;2023-02-26T14:43:45;2.28;;;1.20;;
31836;SDS011;18401;49.344;6.240;2023-02-26T14:46:17;3.90;;;1.00;;
31836;SDS011;18401;49.344;6.240;2023-02-26T14:48:43;1.60;;;1.40;;
31836;SDS011;18401;49.344;6.240;2023-02-26T15:06:56;2.42;;;1.50;;
31836;SDS011;18401;49.344;6.240;2023-02-26T15:22:30;5.20;;;1.58;;
31836;SDS011;18401;49.344;6.240;2023-02-26T15:25:10;3.75;;;1.58;;
31836;SDS011;18401;49.344;6.240;2023-02-26T15:27:51;4.67;;;1.50;;
31836;SDS011;18401;49.344;6.240;2023-02-26T15:30:17;1.73;;;1.40;;
31836;SDS011;18401;49.344;6.240;2023-02-26T15:32:43;1.40;;;1.27;;
31836;SDS011;18401;49.344;6.240;2023-02-26T15:35:17;1.30;;;1.20;;
31836;SDS011;18401;49.344;6.240;2023-02-26T15:37:48;1.87;;;1.47;;
31836;SDS011;18401;49.344;6.240;2023-02-26T15:40:17;2.70;;;1.35;;
31836;SDS011;18401;49.344;6.240;2023-02-26T15:42:43;2.15;;;1.13;;
31836;SDS011;18401;49.344;6.240;2023-02-26T15:45:26;4.22;;;1.35;;
31836;SDS011;18401;49.344;6.240;2023-02-26T15:47:58;1.88;;;1.33;;
31836;SDS011;18401;49.344;6.240;2023-02-26T15:50:27;3.10;;;1.35;;
31836;SDS011;18401;49.344;6.240;2023-02-26T15:52:59;1.20;;;1.20;;
31836;SDS011;18401;49.344;6.240;2023-02-26T15:55:30;2.45;;;1.40;;
31836;SDS011;18401;49.344;6.240;2023-02-26T15:58:00;1.50;;;1.40;;
31836;SDS011;18401;49.344;6.240;2023-02-26T16:00:26;4.35;;;1.50;;
31836;SDS011;18401;49.344;6.240;2023-02-26T16:02:57;2.35;;;1.45;;
31836;SDS011;18401;49.344;6.240;2023-02-26T16:05:26;5.43;;;1.52;;
31836;SDS011;18401;49.344;6.240;2023-02-26T16:07:53;2.05;;;1.85;;
31836;SDS011;18401;49.344;6.240;2023-02-26T16:10:35;2.85;;;2.40;;
31836;SDS011;18401;49.344;6.240;2023-02-26T16:13:09;2.58;;;1.38;;
31836;SDS011;18401;49.344;6.240;2023-02-26T16:15:39;2.28;;;1.92;;
31836;SDS011;18401;49.344;6.240;2023-02-26T16:18:06;2.25;;;1.48;;
31836;SDS011;18401;49.344;6.240;2023-02-26T16:20:42;4.07;;;1.60;;
31836;SDS011;18401;49.344;6.240;2023-02-26T16:23:14;2.30;;;1.55;;
31836;SDS011;18401;49.344;6.240;2023-02-26T16:28:27;3.33;;;1.50;;
31836;SDS011;18401;49.344;6.240;2023-02-26T16:30:56;1.23;;;1.20;;
31836;SDS011;18401;49.344;6.240;2023-02-26T16:33:25;1.95;;;1.48;;
31836;SDS011;18401;49.344;6.240;2023-02-26T16:35:56;1.35;;;1.25;;
31836;SDS011;18401;49.344;6.240;2023-02-26T16:41:10;1.50;;;1.40;;
31836;SDS011;18401;49.344;6.240;2023-02-26T16:51:51;1.90;;;1.70;;
31836;SDS011;18401;49.344;6.240;2023-02-26T16:54:18;3.00;;;1.60;;
31836;SDS011;18401;49.344;6.240;2023-02-26T16:56:47;1.70;;;1.60;;
31836;SDS011;18401;49.344;6.240;2023-02-26T16:59:21;2.50;;;2.00;;
31836;SDS011;18401;49.344;6.240;2023-02-26T17:01:55;1.65;;;1.50;;
31836;SDS011;18401;49.344;6.240;2023-02-26T17:04:31;2.45;;;2.20;;
31836;SDS011;18401;49.344;6.240;2023-02-26T17:06:59;2.70;;;2.45;;
31836;SDS011;18401;49.344;6.240;2023-02-26T17:09:48;4.82;;;2.20;;
31836;SDS011;18401;49.344;6.240;2023-02-26T17:12:14;4.30;;;2.10;;
31836;SDS011;18401;49.344;6.240;2023-02-26T17:14:44;2.53;;;1.63;;
31836;SDS011;18401;49.344;6.240;2023-02-26T17:17:20;6.57;;;2.80;;
31836;SDS011;18401;49.344;6.240;2023-02-26T17:19:46;3.17;;;2.35;;
31836;SDS011;18401;49.344;6.240;2023-02-26T17:22:12;3.33;;;2.15;;
31836;SDS011;18401;49.344;6.240;2023-02-26T17:24:40;3.38;;;2.25;;
31836;SDS011;18401;49.344;6.240;2023-02-26T17:27:16;5.18;;;1.70;;
31836;SDS011;18401;49.344;6.240;2023-02-26T17:29:47;5.15;;;2.08;;
31836;SDS011;18401;49.344;6.240;2023-02-26T17:32:22;5.88;;;2.70;;
31836;SDS011;18401;49.344;6.240;2023-02-26T17:34:51;7.72;;;3.65;;
31836;SDS011;18401;49.344;6.240;2023-02-26T17:37:18;3.75;;;2.65;;
31836;SDS011;18401;49.344;6.240;2023-02-26T17:39:44;3.20;;;2.47;;
31836;SDS011;18401;49.344;6.240;2023-02-26T17:42:17;2.70;;;2.28;;
31836;SDS011;18401;49.344;6.240;2023-02-26T17:44:45;2.75;;;2.17;;
31836;SDS011;18401;49.344;6.240;2023-02-26T17:47:13;2.25;;;1.85;;
31836;SDS011;18401;49.344;6.240;2023-02-26T17:49:41;2.38;;;1.65;;
31836;SDS011;18401;49.344;6.240;2023-02-26T17:52:07;5.38;;;1.83;;
31836;SDS011;18401;49.344;6.240;2023-02-26T17:54:32;3.60;;;2.13;;
31836;SDS011;18401;49.344;6.240;2023-02-26T17:56:58;8.88;;;2.47;;
31836;SDS011;18401;49.344;6.240;2023-02-26T17:59:24;3.40;;;2.40;;
31836;SDS011;18401;49.344;6.240;2023-02-26T18:01:50;10.23;;;2.15;;
31836;SDS011;18401;49.344;6.240;2023-02-26T18:04:17;1.83;;;1.58;;
31836;SDS011;18401;49.344;6.240;2023-02-26T18:06:43;2.05;;;1.70;;
31836;SDS011;18401;49.344;6.240;2023-02-26T18:09:09;2.00;;;1.75;;
31836;SDS011;18401;49.344;6.240;2023-02-26T18:11:36;4.75;;;1.90;;
31836;SDS011;18401;49.344;6.240;2023-02-26T18:14:02;3.30;;;1.90;;
31836;SDS011;18401;49.344;6.240;2023-02-26T18:16:31;3.20;;;2.05;;
31836;SDS011;18401;49.344;6.240;2023-02-26T18:19:00;3.58;;;2.40;;
31836;SDS011;18401;49.344;6.240;2023-02-26T18:21:26;4.03;;;1.70;;
31836;SDS011;18401;49.344;6.240;2023-02-26T18:23:52;2.65;;;1.70;;
31836;SDS011;18401;49.344;6.240;2023-02-26T18:26:20;1.65;;;1.55;;
31836;SDS011;18401;49.344;6.240;2023-02-26T18:28:49;2.00;;;1.80;;
31836;SDS011;18401;49.344;6.240;2023-02-26T18:31:15;1.58;;;1.45;;
31836;SDS011;18401;49.344;6.240;2023-02-26T18:33:41;3.17;;;1.70;;
31836;SDS011;18401;49.344;6.240;2023-02-26T18:36:15;1.83;;;1.50;;
31836;SDS011;18401;49.344;6.240;2023-02-26T18:38:48;1.90;;;1.80;;
31836;SDS011;18401;49.344;6.240;2023-02-26T18:41:14;2.67;;;2.13;;
31836;SDS011;18401;49.344;6.240;2023-02-26T18:43:39;2.00;;;1.75;;
31836;SDS011;18401;49.344;6.240;2023-02-26T18:46:05;4.05;;;2.80;;
31836;SDS011;18401;49.344;6.240;2023-02-26T18:48:33;2.60;;;2.40;;
31836;SDS011;18401;49.344;6.240;2023-02-26T18:50:59;4.55;;;2.55;;
31836;SDS011;18401;49.344;6.240;2023-02-26T18:53:25;2.80;;;2.15;;
31836;SDS011;18401;49.344;6.240;2023-02-26T18:55:51;2.35;;;2.15;;
31836;SDS011;18401;49.344;6.240;2023-02-26T18:58:19;5.85;;;1.83;;
31836;SDS011;18401;49.344;6.240;2023-02-26T19:00:45;2.22;;;1.88;;
31836;SDS011;18401;49.344;6.240;2023-02-26T19:03:11;2.67;;;2.00;;
31836;SDS011;18401;49.344;6.240;2023-02-26T19:05:37;4.10;;;2.60;;
31836;SDS011;18401;49.344;6.240;2023-02-26T19:08:03;3.33;;;1.95;;
31836;SDS011;18401;49.344;6.240;2023-02-26T19:10:29;3.10;;;2.00;;
31836;SDS011;18401;49.344;6.240;2023-02-26T19:12:56;6.55;;;3.28;;
31836;SDS011;18401;49.344;6.240;2023-02-26T19:15:22;3.92;;;2.67;;
31836;SDS011;18401;49.344;6.240;2023-02-26T19:17:48;5.35;;;3.35;;
31836;SDS011;18401;49.344;6.240;2023-02-26T19:20:15;6.90;;;3.67;;
31836;SDS011;18401;49.344;6.240;2023-02-26T19:22:40;4.88;;;2.90;;
31836;SDS011;18401;49.344;6.240;2023-02-26T19:25:07;4.57;;;2.65;;
31836;SDS011;18401;49.344;6.240;2023-02-26T19:27:34;11.13;;;3.85;;
31836;SDS011;18401;49.344;6.240;2023-02-26T19:30:00;5.35;;;3.20;;
31836;SDS011;18401;49.344;6.240;2023-02-26T19:32:27;4.75;;;2.50;;
31836;SDS011;18401;49.344;6.240;2023-02-26T19:34:53;5.20;;;3.03;;
31836;SDS011;18401;49.344;6.240;2023-02-26T19:37:19;5.95;;;3.03;;
31836;SDS011;18401;49.344;6.240;2023-02-26T19:39:45;5.05;;;3.22;;
31836;SDS011;18401;49.344;6.240;2023-02-26T19:42:11;9.13;;;2.92;;
31836;SDS011;18401;49.344;6.240;2023-02-26T19:44:37;2.30;;;2.10;;
31836;SDS011;18401;49.344;6.240;2023-02-26T19:47:02;3.30;;;2.38;;
31836;SDS011;18401;49.344;6.240;2023-02-26T19:49:28;3.97;;;2.13;;
31836;SDS011;18401;49.344;6.240;2023-02-26T19:51:54;3.78;;;2.53;;
31836;SDS011;18401;49.344;6.240;2023-02-26T19:54:21;6.88;;;3.67;;
31836;SDS011;18401;49.344;6.240;2023-02-26T19:56:46;13.40;;;5.90;;
31836;SDS011;18401;49.344;6.240;2023-02-26T19:59:13;5.28;;;3.17;;
31836;SDS011;18401;49.344;6.240;2023-02-26T20:01:39;8.52;;;4.28;;
31836;SDS011;18401;49.344;6.240;2023-02-26T20:04:05;7.00;;;3.15;;
31836;SDS011;18401;49.344;6.240;2023-02-26T20:06:32;6.25;;;3.30;;
31836;SDS011;18401;49.344;6.240;2023-02-26T20:08:57;4.25;;;2.65;;
31836;SDS011;18401;49.344;6.240;2023-02-26T20:11:23;2.00;;;1.83;;
31836;SDS011;18401;49.344;6.240;2023-02-26T20:13:49;2.00;;;1.80;;
31836;SDS011;18401;49.344;6.240;2023-02-26T20:16:15;2.40;;;1.83;;
31836;SDS011;18401;49.344;6.240;2023-02-26T20:18:40;3.85;;;2.17;;
31836;SDS011;18401;49.344;6.240;2023-02-26T20:21:08;3.80;;;2.20;;
31836;SDS011;18401;49.344;6.240;2023-02-26T20:23:35;2.28;;;1.90;;
31836;SDS011;18401;49.344;6.240;2023-02-26T20:26:03;5.57;;;3.00;;
31836;SDS011;18401;49.344;6.240;2023-02-26T20:28:34;8.90;;;3.42;;
31836;SDS011;18401;49.344;6.240;2023-02-26T20:31:01;7.43;;;3.75;;
31836;SDS011;18401;49.344;6.240;2023-02-26T20:33:27;11.10;;;5.15;;
31836;SDS011;18401;49.344;6.240;2023-02-26T20:35:53;6.20;;;2.55;;
31836;SDS011;18401;49.344;6.240;2023-02-26T20:38:19;10.80;;;3.78;;
31836;SDS011;18401;49.344;6.240;2023-02-26T20:40:46;7.70;;;3.28;;
31836;SDS011;18401;49.344;6.240;2023-02-26T20:43:12;9.63;;;3.55;;
31836;SDS011;18401;49.344;6.240;2023-02-26T20:45:38;6.03;;;3.40;;
31836;SDS011;18401;49.344;6.240;2023-02-26T20:48:05;4.25;;;2.15;;
31836;SDS011;18401;49.344;6.240;2023-02-26T20:50:32;2.45;;;2.20;;
31836;SDS011;18401;49.344;6.240;2023-02-26T20:52:59;4.68;;;2.85;;
31836;SDS011;18401;49.344;6.240;2023-02-26T20:55:24;3.50;;;2.65;;
31836;SDS011;18401;49.344;6.240;2023-02-26T20:57:50;2.92;;;2.15;;
31836;SDS011;18401;49.344;6.240;2023-02-26T21:00:16;2.10;;;1.90;;
31836;SDS011;18401;49.344;6.240;2023-02-26T21:02:42;3.92;;;2.20;;
31836;SDS011;18401;49.344;6.240;2023-02-26T21:05:09;1.90;;;1.80;;
31836;SDS011;18401;49.344;6.240;2023-02-26T21:07:36;3.25;;;1.80;;
31836;SDS011;18401;49.344;6.240;2023-02-26T21:10:03;2.20;;;2.00;;
31836;SDS011;18401;49.344;6.240;2023-02-26T21:12:31;2.03;;;1.80;;
31836;SDS011;18401;49.344;6.240;2023-02-26T21:14:57;6.40;;;2.63;;
31836;SDS011;18401;49.344;6.240;2023-02-26T21:17:23;6.15;;;2.97;;
31836;SDS011;18401;49.344;6.240;2023-02-26T21:19:50;5.50;;;2.03;;
31836;SDS011;18401;49.344;6.240;2023-02-26T21:22:16;1.80;;;1.70;;
31836;SDS011;18401;49.344;6.240;2023-02-26T21:24:43;5.45;;;2.17;;
31836;SDS011;18401;49.344;6.240;2023-02-26T21:27:09;2.75;;;1.88;;
31836;SDS011;18401;49.344;6.240;2023-02-26T21:29:35;2.10;;;2.00;;
31836;SDS011;18401;49.344;6.240;2023-02-26T21:32:00;2.30;;;1.77;;
31836;SDS011;18401;49.344;6.240;2023-02-26T21:34:30;4.68;;;3.08;;
31836;SDS011;18401;49.344;6.240;2023-02-26T21:37:04;4.85;;;2.13;;
31836;SDS011;18401;49.344;6.240;2023-02-26T21:39:31;1.95;;;1.85;;
31836;SDS011;18401;49.344;6.240;2023-02-26T21:41:58;2.75;;;2.10;;
31836;SDS011;18401;49.344;6.240;2023-02-26T21:44:27;3.13;;;1.92;;
31836;SDS011;18401;49.344;6.240;2023-02-26T21:46:54;2.08;;;1.70;;
31836;SDS011;18401;49.344;6.240;2023-02-26T21:49:21;4.28;;;1.98;;
31836;SDS011;18401;49.344;6.240;2023-02-26T21:51:47;3.90;;;2.40;;
31836;SDS011;18401;49.344;6.240;2023-02-26T21:54:13;3.95;;;2.65;;
31836;SDS011;18401;49.344;6.240;2023-02-26T21:56:39;8.13;;;3.20;;
31836;SDS011;18401;49.344;6.240;2023-02-26T21:59:04;13.35;;;3.47;;
31836;SDS011;18401;49.344;6.240;2023-02-26T22:01:30;10.98;;;3.10;;
31836;SDS011;18401;49.344;6.240;2023-02-26T22:03:56;11.90;;;3.83;;
31836;SDS011;18401;49.344;6.240;2023-02-26T22:06:21;10.73;;;3.85;;
31836;SDS011;18401;49.344;6.240;2023-02-26T22:08:47;12.60;;;4.03;;
31836;SDS011;18401;49.344;6.240;2023-02-26T22:11:13;7.03;;;3.72;;
31836;SDS011;18401;49.344;6.240;2023-02-26T22:13:39;6.72;;;2.47;;
31836;SDS011;18401;49.344;6.240;2023-02-26T22:16:04;5.38;;;2.65;;
31836;SDS011;18401;49.344;6.240;2023-02-26T22:18:30;3.60;;;2.60;;
31836;SDS011;18401;49.344;6.240;2023-02-26T22:20:56;8.27;;;3.03;;
31836;SDS011;18401;49.344;6.240;2023-02-26T22:23:21;8.15;;;2.58;;
31836;SDS011;18401;49.344;6.240;2023-02-26T22:25:47;7.18;;;3.00;;
31836;SDS011;18401;49.344;6.240;2023-02-26T22:28:13;14.90;;;4.18;;
31836;SDS011;18401;49.344;6.240;2023-02-26T22:30:38;3.55;;;2.35;;
31836;SDS011;18401;49.344;6.240;2023-02-26T22:33:04;10.80;;;3.13;;
31836;SDS011;18401;49.344;6.240;2023-02-26T22:35:30;11.23;;;3.85;;
31836;SDS011;18401;49.344;6.240;2023-02-26T22:37:56;7.70;;;2.80;;
31836;SDS011;18401;49.344;6.240;2023-02-26T22:40:21;11.25;;;2.83;;
31836;SDS011;18401;49.344;6.240;2023-02-26T22:42:49;10.88;;;3.13;;
31836;SDS011;18401;49.344;6.240;2023-02-26T22:45:15;8.85;;;3.33;;
31836;SDS011;18401;49.344;6.240;2023-02-26T22:47:44;15.05;;;4.22;;
31836;SDS011;18401;49.344;6.240;2023-02-26T22:50:12;3.05;;;2.08;;
31836;SDS011;18401;49.344;6.240;2023-02-26T22:52:38;5.50;;;2.03;;
31836;SDS011;18401;49.344;6.240;2023-02-26T22:55:04;4.97;;;2.55;;
31836;SDS011;18401;49.344;6.240;2023-02-26T22:57:31;4.53;;;2.47;;
31836;SDS011;18401;49.344;6.240;2023-02-26T22:59:56;2.25;;;1.98;;
31836;SDS011;18401;49.344;6.240;2023-02-26T23:02:22;2.42;;;2.22;;
31836;SDS011;18401;49.344;6.240;2023-02-26T23:04:48;3.88;;;1.98;;
31836;SDS011;18401;49.344;6.240;2023-02-26T23:07:14;3.75;;;1.70;;
31836;SDS011;18401;49.344;6.240;2023-02-26T23:09:40;2.25;;;1.77;;
31836;SDS011;18401;49.344;6.240;2023-02-26T23:12:06;2.95;;;1.98;;
31836;SDS011;18401;49.344;6.240;2023-02-26T23:14:32;7.13;;;2.05;;
31836;SDS011;18401;49.344;6.240;2023-02-26T23:16:58;2.58;;;1.95;;
31836;SDS011;18401;49.344;6.240;2023-02-26T23:19:23;5.85;;;1.75;;
31836;SDS011;18401;49.344;6.240;2023-02-26T23:21:49;3.97;;;2.15;;
31836;SDS011;18401;49.344;6.240;2023-02-26T23:24:15;3.10;;;2.20;;
31836;SDS011;18401;49.344;6.240;2023-02-26T23:26:41;6.80;;;2.13;;
31836;SDS011;18401;49.344;6.240;2023-02-26T23:29:07;7.40;;;2.15;;
31836;SDS011;18401;49.344;6.240;2023-02-26T23:31:32;7.32;;;2.33;;
31836;SDS011;18401;49.344;6.240;2023-02-26T23:33:58;4.07;;;2.58;;
31836;SDS011;18401;49.344;6.240;2023-02-26T23:36:24;3.72;;;2.20;;
31836;SDS011;18401;49.344;6.240;2023-02-26T23:38:50;5.38;;;2.00;;
31836;SDS011;18401;49.344;6.240;2023-02-26T23:41:16;8.35;;;2.38;;
31836;SDS011;18401;49.344;6.240;2023-02-26T23:43:41;15.60;;;3.47;;
31836;SDS011;18401;49.344;6.240;2023-02-26T23:46:08;8.48;;;2.83;;
31836;SDS011;18401;49.344;6.240;2023-02-26T23:48:33;7.72;;;2.67;;
31836;SDS011;18401;49.344;6.240;2023-02-26T23:50:59;9.25;;;2.85;;
31836;SDS011;18401;49.344;6.240;2023-02-26T23:53:25;6.10;;;2.72;;
31836;SDS011;18401;49.344;6.240;2023-02-26T23:55:51;5.30;;;2.35;;
31836;SDS011;18401;49.344;6.240;2023-02-26T23:58:21;3.00;;;2.33;;
